Bents Old Fort, Colorado
Current Conditions -  °F | °C
As of 11:53 AM on Thursday 23 Oct 2014 (Local Time) from KLHX Reporting Station
Clear Clear  
Wind Chill: 69°   Ceiling: Unl
Heat Index: 69°   Visibility: 10mi
Dew Point: 46°   Wind: 3mph
Humidity: 44%   Direction: NA
Pressure: 30.16"   Gusts: NA
Location:  37.8368°N, 103.544°W
Report Text: KLHX 231753Z AUTO VRB03KT 10SM CLR 21/08 A3016 RMK AO2 SLP170 T02060078 10206 20072 58007
Loading
Personal Weather Stations






























Interactive Weather Map
Tropical Storm Tracking
New forecast layout! Learn more

10-Day Weather Forecast

Advertisements
Track Severe Weather on mobile